Terminal Aerodrome Forecast
Issued by NWS

Home | Current Version | Previous Version | Text Only | Print | Product List | Glossary On
Versions: 1 2 3 4 5 6 7 8 9 10 11 12 13 14 15 16 17 18 19 20 21
000
FTUS46 KMFR 221148
TAFRBG
TAF
KRBG 221148Z 2212/2312 34006KT P6SM OVC015
     FM221900 VRB03KT P6SM OVC025
     FM222300 35006KT P6SM OVC035
     FM230500 35003KT P6SM OVC028=

USA.gov is the U.S. government's official web portal to all federal, state and local government web resources and services.